Airfield :
LOGIN :

Register | Disclaimer

   EN    FR    IT 

 










Legend :    VFR   Marginal VFR   IFR   Intensive IFR   Very Intensive IFR
Visi :
Ceiling :
>= 8 km
>= 3000ft
5 to 8 km
1000 to 3000 ft
1500m to 5 km
500 to 1000 ft
800 to 1500m
200 to 500 ft
< 800m
< 200 ft
Symbols :   Thunderstorms  Fog  Heavy snow  Heavy precipitations  Wind > 20 kt
SIGMETs :     Misc.  Thunderstorms  Icing  Turbulence  Mountain Waves  Volcanic Ashes






- Airport Elevation : 29 ft
- IATA code : SVG


ENZV - Sola

CURRENT METAR :
  • 212250Z 31015KT 9999 FEW015 SCT030 07/04 Q1029

EXPIRED METARs :
  • 212220Z 31017KT 9999 FEW022 BKN032 07/04 Q1029
  • 212150Z 31015KT 9999 SCT020 07/04 Q1029
  • 212120Z 30018KT 9999 SCT020 06/04 Q1029
  • 212050Z 30018KT 9999 SCT022 BKN047 07/04 Q1029
  • 212020Z 31016KT 9999 SCT037 07/03 Q1029 TEMPO 32018G28KT

TAF TAF ENZV
Valid from the 21 at 18:00 until the 22 at 18:00 UTC


2118/2218 30015KT 9999 FEW015TCU SCT030
TEMPO 2118/2203 31018G28KT
BECMG 2210/2213 15005KT



MET'MAP, your aeronautical weather chart ! - Copyright ORBIFLY December 2007 - Disclaimer

ORBIFLY MET'MAP TEAM :

Programming & Development : Alexandra Zaïnal
Concept & original design : Baudouin d'Aumeries
Assistance for programming : Marc-Olivier Méhu
Technical & hardware support : Manuel Goepfert

Contact : metmap@orbifly.com




SOURCES & CREDITS :

   NOAA